Wind From: 11-12-2017 06:00 Until: 12-12-2017 06:00 warning for: Wind Level: Orange info button

Power and phone distribution networks may be disrupted for relatively long periods., Roofs and chimneys can be damaged. , Tree branches may break. , Vehicles can be deported. , Traffic may be disrupted, particularly on secondary roads in forest areas. Limit your trips. , Limit your speed in highway driving, especially if you drive a vehicle or hitch sensitive to wind. , Do not go for walks in forests or along the coast., In town, be vigilant against possible falling objects., Do not work on roofs and do not touch any electrical line fallen on the ground., Store or secure sensitive objects to wind or likely to be damaged., Always install power generators outside buildings. 


Meteo18 Weather Cam more information Meteo18 Weather Cam


Thunder radar more information blitzortung!


Rain radar more information rain snow radar


Visit our other weather sites:

Template documentation
and downloads

And another site



Weather Underground History page Text

Daily Summary for May 15, 2017 Units:  English    Metric   Both
« Previous Day
Next Day »
Daily Weekly Monthly Yearly Custom
  High: Low: Average:
Temperature: 77.4 °F 45 °F 60.8 °F
Dew Point: 56.7 °F 43.3 °F 49.8 °F
Humidity: 95 % 41 % 70 %
Wind Speed: 4 mph 0 mph 0.6 mph
Wind Gust: 8 mph - -
Wind:- - South
Pressure: 30.4 in 30.4 in -
Precipitation: 0 in    
Historical Graphs
 
 
Tabular Data for May 15, 2017
Time Temperature Dew Point Pressure Wind Wind Speed Wind Gust Humidity Rainfall Rate (Hourly)
00:02 51.6 °F 47.3 °F 30.4 in Calm     85 % 0 in
00:07 51.3 °F 47.3 °F 30.4 in Calm   1 mph 86 % 0 in
00:12 50.7 °F 46.9 °F 30.4 in Calm   1 mph 87 % 0 in
00:17 50.7 °F 46.8 °F 30.4 in Calm   1 mph 86 % 0 in
00:22 50.7 °F 46.8 °F 30.4 in Calm   2 mph 86 % 0 in
00:32 50.7 °F 46.8 °F 30.4 in Calm   2 mph 86 % 0 in
00:42 51.1 °F 46.4 °F 30.4 in Calm     84 % 0 in
00:52 50.5 °F 46.2 °F 30.4 in Calm     85 % 0 in
00:57 50.5 °F 46.6 °F 30.4 in Calm     86 % 0 in
01:02 50.4 °F 46.6 °F 30.4 in Calm     87 % 0 in
01:12 49.8 °F 46 °F 30.4 in Calm     87 % 0 in
01:17 50 °F 46.6 °F 30.4 in Calm     88 % 0 in
01:22 49.8 °F 46.4 °F 30.4 in Calm     88 % 0 in
01:32 49.6 °F 46.2 °F 30.4 in Calm     88 % 0 in
01:37 49.3 °F 45.9 °F 30.4 in Calm     88 % 0 in
01:42 48.9 °F 45.9 °F 30.4 in Calm     89 % 0 in
01:47 48.7 °F 45.7 °F 30.4 in Calm     89 % 0 in
01:52 48.6 °F 45.7 °F 30.4 in Calm     90 % 0 in
01:57 48.7 °F 45.9 °F 30.4 in Calm     90 % 0 in
02:02 48.9 °F 45.9 °F 30.4 in Calm     89 % 0 in
02:12 48.9 °F 45.9 °F 30.4 in Calm     89 % 0 in
02:17 48.9 °F 45.9 °F 30.4 in Calm     89 % 0 in
02:22 48.7 °F 45.3 °F 30.4 in Calm     88 % 0 in
02:32 48.6 °F 45.5 °F 30.4 in Calm     89 % 0 in
02:42 48.2 °F 45.3 °F 30.4 in Calm     90 % 0 in
02:47 48 °F 45.1 °F 30.4 in Calm     90 % 0 in
02:52 47.7 °F 45 °F 30.4 in Calm     90 % 0 in
02:57 47.7 °F 45 °F 30.4 in Calm     90 % 0 in
03:02 47.3 °F 44.6 °F 30.4 in Calm     90 % 0 in
03:12 47.1 °F 45 °F 30.4 in Calm     92 % 0 in
03:17 47.1 °F 45 °F 30.4 in Calm     92 % 0 in
03:22 47.1 °F 45 °F 30.4 in Calm     92 % 0 in
03:27 46.9 °F 44.8 °F 30.4 in Calm     92 % 0 in
03:32 46.8 °F 44.6 °F 30.4 in Calm     92 % 0 in
03:37 46.8 °F 44.6 °F 30.4 in Calm     92 % 0 in
03:42 46.8 °F 44.6 °F 30.4 in Calm     92 % 0 in
03:47 46.8 °F 44.8 °F 30.4 in Calm     93 % 0 in
03:52 46.8 °F 44.8 °F 30.4 in Calm     93 % 0 in
03:57 46.6 °F 44.4 °F 30.4 in Calm     92 % 0 in
04:02 46.6 °F 44.6 °F 30.4 in Calm     93 % 0 in
04:07 46.6 °F 44.4 °F 30.4 in Calm     92 % 0 in
04:12 46.4 °F 44.4 °F 30.4 in Calm     93 % 0 in
04:17 46.4 °F 44.4 °F 30.4 in Calm     93 % 0 in
04:22 46.6 °F 44.6 °F 30.4 in Calm     93 % 0 in
04:27 46.4 °F 44.4 °F 30.4 in Calm     93 % 0 in
04:32 46.4 °F 44.4 °F 30.4 in Calm     93 % 0 in
04:37 46.6 °F 44.6 °F 30.4 in Calm     93 % 0 in
04:42 46.6 °F 44.6 °F 30.4 in Calm     93 % 0 in
04:47 46.2 °F 44.2 °F 30.4 in Calm     93 % 0 in
04:52 46.2 °F 44.2 °F 30.4 in Calm     93 % 0 in
05:02 46 °F 44.1 °F 30.4 in Calm     93 % 0 in
05:12 45.7 °F 43.7 °F 30.4 in Calm     93 % 0 in
05:17 45.7 °F 44.1 °F 30.4 in Calm     94 % 0 in
05:22 45.7 °F 44.1 °F 30.4 in Calm     94 % 0 in
05:32 45.3 °F 43.7 °F 30.4 in Calm     94 % 0 in
05:37 45.5 °F 43.9 °F 30.4 in Calm     94 % 0 in
05:42 45.5 °F 43.9 °F 30.4 in Calm     94 % 0 in
05:47 45.7 °F 44.4 °F 30.4 in Calm     95 % 0 in
05:52 45.9 °F 44.2 °F 30.4 in Calm     94 % 0 in
06:02 45.9 °F 44.4 °F 30.4 in Calm     95 % 0 in
06:12 45.7 °F 44.1 °F 30.4 in Calm     94 % 0 in
06:17 45.7 °F 44.1 °F 30.4 in Calm     94 % 0 in
06:22 45.3 °F 43.7 °F 30.4 in Calm     94 % 0 in
06:27 45.1 °F 43.5 °F 30.4 in Calm     94 % 0 in
06:32 45.3 °F 44.1 °F 30.4 in Calm     95 % 0 in
06:37 45.3 °F 43.7 °F 30.4 in Calm     94 % 0 in
06:42 45.3 °F 43.7 °F 30.4 in Calm     94 % 0 in
06:47 45.1 °F 43.5 °F 30.4 in Calm     94 % 0 in
06:52 45.1 °F 43.5 °F 30.4 in Calm     94 % 0 in
06:57 45 °F 43.3 °F 30.4 in Calm     94 % 0 in
07:02 45.1 °F 43.9 °F 30.4 in Calm     95 % 0 in
07:12 45.7 °F 44.4 °F 30.4 in Calm     95 % 0 in
07:17 45.7 °F 44.4 °F 30.4 in Calm     95 % 0 in
07:27 46 °F 44.6 °F 30.4 in Calm     95 % 0 in
07:32 46.6 °F 45.1 °F 30.4 in Calm     95 % 0 in
07:37 46.9 °F 45.5 °F 30.4 in Calm     95 % 0 in
07:42 47.3 °F 45.9 °F 30.4 in Calm     95 % 0 in
07:47 47.7 °F 46.2 °F 30.4 in Calm     95 % 0 in
07:52 47.8 °F 46.2 °F 30.4 in Calm     94 % 0 in
07:57 48.4 °F 46.8 °F 30.4 in Calm     94 % 0 in
08:02 48.7 °F 47.1 °F 30.4 in Calm     94 % 0 in
08:12 50.2 °F 48.6 °F 30.4 in Calm     94 % 0 in
08:17 50.7 °F 49.1 °F 30.4 in Calm     94 % 0 in
08:22 51.3 °F 49.3 °F 30.4 in Calm     93 % 0 in
08:32 53.2 °F 50.9 °F 30.4 in Calm     92 % 0 in
08:37 54.1 °F 50.9 °F 30.4 in Calm     89 % 0 in
08:42 55.2 °F 51.4 °F 30.4 in Calm     87 % 0 in
08:47 56.3 °F 51.4 °F 30.4 in Calm     84 % 0 in
08:52 55.9 °F 50.5 °F 30.4 in Calm     82 % 0 in
08:57 55.6 °F 50.9 °F 30.4 in Calm     84 % 0 in
09:02 56.1 °F 51.4 °F 30.4 in Calm     84 % 0 in
09:12 57.2 °F 51.8 °F 30.4 in Calm     82 % 0 in
09:17 57.9 °F 51.8 °F 30.4 in Calm     80 % 0 in
09:22 58.1 °F 52.3 °F 30.4 in Calm     81 % 0 in
09:27 58.5 °F 52.3 °F 30.4 in SSW 1 mph 2 mph 80 % 0 in
09:32 58.8 °F 52.7 °F 30.4 in South 1 mph 3 mph 80 % 0 in
09:37 59.2 °F 53.4 °F 30.4 in South 1 mph 3 mph 81 % 0 in
09:42 59.7 °F 52.9 °F 30.4 in Calm   3 mph 78 % 0 in
09:52 60.8 °F 53.2 °F 30.4 in Calm   3 mph 76 % 0 in
10:02 62.2 °F 53.1 °F 30.4 in Calm   3 mph 72 % 0 in
10:12 62.4 °F 52.2 °F 30.4 in SSW 1 mph 2 mph 69 % 0 in
10:17 62.8 °F 53.2 °F 30.4 in Calm   2 mph 71 % 0 in
10:22 63.3 °F 53.4 °F 30.4 in South 1 mph 2 mph 70 % 0 in
10:32 64.2 °F 53.8 °F 30.4 in SW 2 mph 2 mph 69 % 0 in
10:42 65.5 °F 53.1 °F 30.4 in SW 3 mph 3 mph 64 % 0 in
10:47 65.7 °F 53.6 °F 30.4 in SSW 1 mph 3 mph 65 % 0 in
10:52 66.2 °F 53.6 °F 30.4 in SSW 2 mph 5 mph 64 % 0 in
10:57 66 °F 52.7 °F 30.4 in SSE 2 mph 5 mph 62 % 0 in
11:02 65.7 °F 52.7 °F 30.4 in SSE 1 mph 5 mph 63 % 0 in
11:12 65.7 °F 53.2 °F 30.4 in SW 1 mph 6 mph 64 % 0 in
11:17 65.7 °F 51.8 °F 30.4 in SW 1 mph 6 mph 61 % 0 in
11:22 65.8 °F 53.2 °F 30.4 in ESE 3 mph 5 mph 64 % 0 in
11:32 66 °F 53.4 °F 30.4 in SSW 3 mph 5 mph 64 % 0 in
11:42 66.2 °F 54.1 °F 30.4 in East 3 mph 4 mph 65 % 0 in
11:52 66.7 °F 53.2 °F 30.4 in SE 2 mph 4 mph 62 % 0 in
11:57 66.9 °F 52.5 °F 30.4 in South 1 mph 4 mph 60 % 0 in
12:02 67.1 °F 52.7 °F 30.4 in SE 1 mph 5 mph 60 % 0 in
12:12 67.6 °F 53.8 °F 30.4 in ESE 3 mph 6 mph 61 % 0 in
12:17 68.4 °F 52 °F 30.4 in SSE 2 mph 6 mph 56 % 0 in
12:22 68.4 °F 50.5 °F 30.4 in SSW 1 mph 5 mph 53 % 0 in
12:27 68.7 °F 52.3 °F 30.4 in SW 4 mph 5 mph 56 % 0 in
12:32 68.7 °F 52.9 °F 30.4 in SW 3 mph 4 mph 57 % 0 in
12:37 69.1 °F 52.2 °F 30.4 in ESE 3 mph 5 mph 55 % 0 in
12:42 69.4 °F 52.5 °F 30.4 in Calm   5 mph 55 % 0 in
12:52 69.3 °F 52.3 °F 30.4 in SE 1 mph 7 mph 55 % 0 in
12:57 69.1 °F 54.1 °F 30.4 in SE 1 mph 7 mph 59 % 0 in
13:02 69.4 °F 54 °F 30.4 in ENE 1 mph 7 mph 58 % 0 in
13:12 69.4 °F 52.2 °F 30.4 in SSW 3 mph 7 mph 54 % 0 in
13:17 69.4 °F 52.2 °F 30.4 in SE 1 mph 7 mph 54 % 0 in
13:22 69.3 °F 52.3 °F 30.4 in East 2 mph 7 mph 55 % 0 in
13:32 70 °F 54 °F 30.4 in Calm   6 mph 57 % 0 in
13:37 70.5 °F 53.1 °F 30.4 in NE 2 mph 6 mph 54 % 0 in
13:42 70.2 °F 51.8 °F 30.4 in ENE 2 mph 5 mph 52 % 0 in
13:47 70.2 °F 52.2 °F 30.4 in ENE 4 mph 5 mph 53 % 0 in
13:52 70.3 °F 51.8 °F 30.4 in ESE 3 mph 4 mph 52 % 0 in
13:57 71.2 °F 53.8 °F 30.4 in ENE 3 mph 5 mph 54 % 0 in
14:02 71.1 °F 52 °F 30.4 in SW 1 mph 5 mph 51 % 0 in
14:12 70.7 °F 52.2 °F 30.4 in East 2 mph 5 mph 52 % 0 in
14:17 71.6 °F 51.4 °F 30.4 in Calm   5 mph 49 % 0 in
14:22 72.3 °F 51.4 °F 30.4 in Calm   5 mph 48 % 0 in
14:27 72.7 °F 52.3 °F 30.4 in WSW 2 mph 5 mph 49 % 0 in
14:32 72.3 °F 52.2 °F 30.4 in ESE 1 mph 4 mph 49 % 0 in
14:37 72.9 °F 52 °F 30.4 in SW 2 mph 4 mph 48 % 0 in
14:42 73 °F 52.7 °F 30.4 in SE 1 mph 5 mph 49 % 0 in
14:47 73.6 °F 51.4 °F 30.4 in ESE 2 mph 5 mph 46 % 0 in
14:52 73.4 °F 51.4 °F 30.4 in East 1 mph 5 mph 46 % 0 in
14:57 73.4 °F 52 °F 30.4 in South 2 mph 5 mph 47 % 0 in
15:02 73.2 °F 48.7 °F 30.4 in Calm   5 mph 42 % 0 in
15:12 72.3 °F 51.4 °F 30.4 in South 3 mph 6 mph 48 % 0 in
15:17 72.9 °F 48.4 °F 30.4 in Calm   6 mph 42 % 0 in
15:22 73.4 °F 48.9 °F 30.4 in SSE 1 mph 5 mph 42 % 0 in
15:27 73.6 °F 49.6 °F 30.4 in Calm   6 mph 43 % 0 in
15:32 73 °F 50.4 °F 30.4 in SW 3 mph 6 mph 45 % 0 in
15:42 73 °F 52.2 °F 30.4 in East 1 mph 5 mph 48 % 0 in
15:47 72.7 °F 50.7 °F 30.4 in WSW 1 mph 6 mph 46 % 0 in
15:57 72.9 °F 53.1 °F 30.4 in SSW 1 mph 6 mph 50 % 0 in
16:02 72.9 °F 51.4 °F 30.4 in Calm   3 mph 47 % 0 in
16:12 73.6 °F 52.2 °F 30.4 in ESE 2 mph 3 mph 47 % 0 in
16:17 74.1 °F 50.2 °F 30.4 in Calm   3 mph 43 % 0 in
16:27 74.8 °F 50.9 °F 30.4 in Calm   3 mph 43 % 0 in
16:32 74.7 °F 50.7 °F 30.4 in SW 4 mph 4 mph 43 % 0 in
16:42 73.4 °F 50.7 °F 30.4 in SW 2 mph 8 mph 45 % 0 in
16:52 74.1 °F 50.2 °F 30.4 in Calm   5 mph 43 % 0 in
16:57 74.3 °F 49.6 °F 30.4 in SE 1 mph 4 mph 42 % 0 in
17:02 74.5 °F 50.5 °F 30.4 in Calm   4 mph 43 % 0 in
17:12 74.5 °F 49.8 °F 30.4 in Calm   5 mph 42 % 0 in
17:22 74.5 °F 50.5 °F 30.4 in WSW 3 mph 5 mph 43 % 0 in
17:27 74.3 °F 50.9 °F 30.4 in SSW 2 mph 5 mph 44 % 0 in
17:32 74.5 °F 51.1 °F 30.4 in Calm   6 mph 44 % 0 in
17:37 74.8 °F 51.4 °F 30.4 in SE 1 mph 6 mph 44 % 0 in
17:42 75 °F 51.6 °F 30.4 in South 1 mph 4 mph 44 % 0 in
17:52 74.5 °F 52.9 °F 30.4 in SW 1 mph 5 mph 47 % 0 in
17:57 75 °F 54 °F 30.4 in SSE 1 mph 5 mph 48 % 0 in
18:07 75.9 °F 53.1 °F 30.4 in Calm   3 mph 45 % 0 in
18:12 75.9 °F 52.5 °F 30.4 in Calm   3 mph 44 % 0 in
18:17 76.5 °F 51.6 °F 30.4 in SW 1 mph 3 mph 42 % 0 in
18:22 75.9 °F 51.8 °F 30.4 in Calm   1 mph 43 % 0 in
18:32 75.9 °F 52.5 °F 30.4 in Calm   3 mph 44 % 0 in
18:37 76.5 °F 52.9 °F 30.4 in Calm   3 mph 44 % 0 in
18:42 76.3 °F 52.7 °F 30.4 in Calm   2 mph 44 % 0 in
18:52 75.4 °F 52 °F 30.4 in East 2 mph 2 mph 44 % 0 in
19:02 76.3 °F 52.7 °F 30.4 in Calm   2 mph 44 % 0 in
19:12 76.5 °F 51.6 °F 30.4 in Calm   2 mph 42 % 0 in
19:22 77.4 °F 51.8 °F 30.4 in Calm   1 mph 41 % 0 in
19:32 76.8 °F 51.3 °F 30.4 in Calm   2 mph 41 % 0 in
19:37 76.6 °F 51.8 °F 30.4 in Calm   2 mph 42 % 0 in
19:42 75.6 °F 51.4 °F 30.4 in Calm   2 mph 43 % 0 in
19:52 74.7 °F 51.3 °F 30.4 in Calm     44 % 0 in
19:57 75 °F 54 °F 30.4 in Calm     48 % 0 in
20:02 75.6 °F 53.2 °F 30.4 in Calm     46 % 0 in
20:07 75.4 °F 53.8 °F 30.4 in Calm     47 % 0 in
20:12 74.8 °F 55 °F 30.4 in Calm     50 % 0 in
20:17 74.5 °F 56.7 °F 30.4 in Calm     54 % 0 in
20:22 74.1 °F 53.2 °F 30.4 in Calm     48 % 0 in
20:27 72.9 °F 51.4 °F 30.4 in Calm     47 % 0 in
20:32 72.7 °F 52.3 °F 30.4 in Calm     49 % 0 in
20:37 73.2 °F 52.9 °F 30.4 in Calm     49 % 0 in
20:42 73.8 °F 54.5 °F 30.4 in Calm     51 % 0 in
20:47 73.2 °F 54.5 °F 30.4 in Calm     52 % 0 in
20:52 71.8 °F 52.7 °F 30.4 in Calm     51 % 0 in
20:57 70.9 °F 52.3 °F 30.4 in Calm     52 % 0 in
21:02 70.3 °F 53.4 °F 30.4 in Calm     55 % 0 in
21:12 68.7 °F 52.9 °F 30.4 in Calm     57 % 0 in
21:17 68 °F 52.7 °F 30.4 in Calm     58 % 0 in
21:22 67.5 °F 53.6 °F 30.4 in Calm     61 % 0 in
21:32 66.7 °F 53.2 °F 30.4 in Calm     62 % 0 in
21:37 66.4 °F 53.4 °F 30.4 in Calm     63 % 0 in
21:42 65.8 °F 54.5 °F 30.4 in Calm     67 % 0 in
21:52 64.6 °F 54.1 °F 30.4 in Calm     69 % 0 in
22:02 64 °F 55.6 °F 30.4 in Calm     74 % 0 in
22:12 63 °F 54.9 °F 30.4 in Calm     75 % 0 in
22:17 62.8 °F 54.7 °F 30.4 in Calm     75 % 0 in
22:22 62.4 °F 54 °F 30.4 in Calm     74 % 0 in
22:32 62.4 °F 53.6 °F 30.4 in Calm   1 mph 73 % 0 in
22:37 62.4 °F 53.6 °F 30.4 in NNW 2 mph 2 mph 73 % 0 in
22:42 62.4 °F 53.6 °F 30.4 in Calm   2 mph 73 % 0 in
22:47 62.1 °F 53.6 °F 30.4 in NNW 1 mph 2 mph 74 % 0 in
22:52 61.9 °F 53.1 °F 30.4 in Calm   2 mph 73 % 0 in
22:57 61.3 °F 53.4 °F 30.4 in NW 1 mph 1 mph 75 % 0 in
23:02 61.3 °F 53.1 °F 30.4 in NW 1 mph 1 mph 74 % 0 in
23:12 61.3 °F 53.1 °F 30.4 in NW 1 mph 1 mph 74 % 0 in
23:17 61 °F 52.7 °F 30.4 in Calm   1 mph 74 % 0 in
23:22 60.4 °F 52.9 °F 30.4 in Calm   1 mph 76 % 0 in
23:32 59.5 °F 52.3 °F 30.4 in Calm     77 % 0 in
23:37 59.9 °F 52.7 °F 30.4 in Calm     77 % 0 in
23:42 60.1 °F 52.5 °F 30.4 in Calm   1 mph 76 % 0 in
23:52 59.7 °F 52.2 °F 30.4 in NW 1 mph 2 mph 76 % 0 in
23:57 59.7 °F 52.5 °F 30.4 in Calm   2 mph 77 % 0 in
Meteo18
Compliments of Weather Underground - 4 mb

Script developed by  Jim McMurry - jmcmurry@mwt.net Adapted for the template by  Wim van der Kuil - Leuven-Template.eu

You find our weather info also at:

European Weather Network

Weather Underground

Equipment we use:

Weather-station
Davis Vue

Weather-program
Meteohub

Weather-server
Raspberry PI 2 B+

Provider
1 and 1

Davis Vue

Meteohub

Raspberry PI 2 B+

1 and 1